Race Results for
Ronde Van Brisbeen
Birsbane, CA
(Event Information)
Criterium on 03/29/2008

Note: Ranking points are NOT upgrade points. An explanation of ranking points can be found here.


Men - Pro/Cat 1/2

 Place Points NameCity, StateTime USAC #BibTeam
1540.00Brent Bookwalter   Asheville, NC00:00:00.00 171977  57 UCI PCT: BMC Racing Team
2541.11Roman Kilun   Oakland, CA00:00:00.00 153790  70 UCI PCT: Health Net Profession
3542.22Andy Jacques-Maynes   Watsonville, CA00:00:00.00 17590  20 California Giant Berry Farms/
4543.33Todd Hennings   Kenwood, CA00:00:00.00 15835  19 Pacific State Bank Cycling Tea
5544.44Jackson Stewart   San Jose, CA00:00:00.00 42023  68 UCI PCT: BMC Racing Team
6545.56David McCook   Tampa Fl00:00:00.00 66627  31 ZteaM Cycling
7546.67Steve Reaney   San Jose, CA00:00:00.00 133288  56 California Giant Cycling
8547.78John Wilk   Oakland, CA00:00:00.00 199951  46 Sierra Pacific Racing
9548.89John Bergmann   Albany, CA00:00:00.00 187522  BPG / Montano Velo
10550.00Justin Fraga   San Francisco, CA00:00:00.00 145583  65 BPG/Montano Velo
11551.11Joel Robertson   San Leandro, CA00:00:00.00 220316  52 Sierra Pacific Racing
12552.22Dave Galvin (1 - Pro)   Menlo Park, CA00:00:00.00 210384  16 BMC Racing Team
13553.33Chris Turner   Los Altos, CA00:00:00.00 253101  42 Page Mill Racing
14554.44Patrick Briggs   Oakland, CA00:00:00.00 4838  California Giant Berry Farms/
15555.56Ian Tuttle   Mill Valley, CA00:00:00.00 216565  43 Above Category Racing
16556.67Uthman Ray (1 - Cat1)   Oakland, CA00:00:00.00 146803  35 ZteaM Cycling
17557.78James Badia   Redwood City, CA00:00:00.00 200949  Webcor/Alto Velo
18558.89Taylor Tolleson   Watsonville, CA00:00:00.00 180179  60 UCI PCT: BMC Racing Team
19560.00Mack Chew   San Francisco, CA00:00:00.00 170147  McGuire Cycling Team
20561.11Christopher Phipps   San Francisco, CA00:00:00.00 233623  34 Morgan Stanley/24 Hr Fitness/S
21562.22Doran Mori   Oakland, CA00:00:00.00 196267  33 Team Clif Bar Cycling
22563.33Robert Newman   Los Gatos, CA00:00:00.00 53327  74 Delta Velo
23564.44Sean McBride   Oakland, CA00:00:00.00 190591  47 BPG/Montano Velo
24565.56Rand Miller   San Francisco, CA00:00:00.00 182990  32 Webcor/Alto Velo
25566.67Adam Ross   Folsom, CA00:00:00.00 167796  58 Contra Costa Cycling Club
26567.78Elliot Jaramillo   Burlingame, CA00:00:00.00 179930  71 BPG/Montano Velo
27568.89Robert Evans   Scotts Valley, CA00:00:00.00 72893  73 Monano Velo Track
28UNKNOWN RIDER   00:00:00.00  51 
29571.11Matthew Ream   Verdi, NV00:00:00.00 211441  36 OWENS HEALTH CARE
30572.22Ryan Bennett   San Francisco, CA00:00:00.00 180391  Adobe/HDR presented by Lombard
31Jonathan COULTER   00:00:00.00  10 Webcor / Alto Velo
32574.44Martin Erlandsson (2 - Cat1)   Tiburon, CA00:00:00.00 270125  14 ZteaM Cycling
33575.56Benjamin Barsi-Rhyne   Los Gatos, CA00:00:00.00 197823  Adobe/HDR Presented by Lombard
34576.67Tyler Gough (1 - Cat2)   Middletown, CA00:00:00.00 204630  18 Adobe/Schwalbe presented by Lo
35577.78Christopher Hipp (3 - Cat1)   Redwood City, CA00:00:00.00 16294  49 Labor Power
36578.89Benjamin Lyon   San Francisco, CA00:00:00.00 227794  26 McGuire Cycling Team
37580.00Alton Dunnigan   Pleasant Hill, CA00:00:00.00 157044  13 McGuire Cycling Team
38581.11Michael Ma   San Jose, CA00:00:00.00 41600  27 SJBC/SugarCRM
39582.22Chris Swan (4 - Cat1)   Portland, OR00:00:00.00 219970  40 ZteaM Cycling
40583.33Andrew Goessling   Richmond, CA00:00:00.00 207262  17 Village Peddler
41584.44Chris Carscadden   Walnut Creek, CA00:00:00.00 165751  Adobe/HDR p/b Lombardi Sports
42585.56Stephen Dey (5 - Cat1)   Oakland, CA00:00:00.00 203800  12 ZteaM Cycling
43586.67Neil Harrington   Los Altos Hills, CA00:00:00.00 247680  62 Webcor/Alto Velo
44587.78Ryan Sabga   Denver, CO00:00:00.00 98814  38 USA Pista Elite
45588.89Ryan Ley   Reno, NV00:00:00.00 54565  53 Unattached
46590.00William Longstreth   Tiburon, CA00:00:00.00 110206  25 Olympic Club
DNSNicholas Agate (Cat2)   Albany, CA00:00:00.00 180146  California Giant Berry Farms
DNSDarren Basso   Belmont, CA00:00:00.00 130973  McGuire Cycling Team
DNSMark Deterline   Salt Lake City, UT00:00:00.00 43613  11 Wells Fargo Racing Team
DNSMichael Foley   Moraga, CA00:00:00.00 11946  15 Wells Fargo Racing Team
DNSChristian Kearney (Cat1)   Oakland, CA00:00:00.00 197820  21 ZteaM Cycling
DNSDean LaBerge   Napa, CA00:00:00.00 67041  22 Team Specialized Racing
DNSBrian Laird   Menlo Park, CA00:00:00.00 20154  23 Labor Power
DNSJP LeClair   Moraga, CA00:00:00.00 203347  24 Adobe/HDR p/b Lombardi Sports
DNSRobert MacNeill   San Carlos, CA00:00:00.00 199599  28 Webcor/Alto Velo
DNSBrent Mann   Walnut Creek, CA00:00:00.00 245038  29 McGuire Cycling Team
DNSJames Mattis   Mountain View, CA00:00:00.00 127344  30 California Giant Berry Farms/
DNSClint Rogers (Cat2)   Sacramento, CA00:00:00.00 195220  37 BPG/Montana Velo
DNSDylan Seguin   Boise, ID00:00:00.00 44296  39 Team Clif Bar Cycling
DNSMatthew Tamel (Cat2)   San Jose, CA00:00:00.00 63450  41 BPG / Montano Velo
DNSMichael Tymoff   San Francisco, CA00:00:00.00 207589  44 McGuire Cycling Team
DNSDevon Vigus   Oakland, CA00:00:00.00 115524  45 California Giant Berry Farms/
DNSDarin Divine   Mill Valley, CA00:00:00.00 97504  48 NorCal Elite Cycling
DNSShawn Oliver   St. Helena, CA00:00:00.00 46241  50 Morgan Stanley Cycling Team
DNSAaron Cox   Clovis, CA00:00:00.00 225219  54 BPG/Montano Velo
DNSJames Miller   Hella Norcal Ca00:00:00.00 122096  55 NorCal Elite Cycling
DNSJohn Hunt (Cat1)   Fairfax, CA00:00:00.00 17154  59 California Giant Cycling
DNSDylan Clark   Auburn, CA00:00:00.00 243069  61 BPG/Montano Velo
DNSAlden Tanaka   San Mateo, CA00:00:00.00 568  63 TEAM CLIF BAR Cycling
DNSDave Nelson   San Jose, CA00:00:00.00 25843  66 NorCal Elite Cycling
DNSPaul Penn   Hayward, CA00:00:00.00 57836  67 BPG/Montano Velo
DNSJeff Poulsen   Arnold, CA00:00:00.00 28533  69 VOS Racing
DNSChris Crawford   Napa, CA00:00:00.00 126286  72 Webcor/Alto Velo
DNSRandy Bramblett   San Francisco, CA00:00:00.00 187194  187194 BPG/Montano Velo
DNSDylan Casey   Menlo Park, CA00:00:00.00 41588  136 Specialized

Men - Cat 1/2/3 - Master - 35-99

 Place Points NameCity, StateTime USAC #BibTeam
1500.00Christopher Phipps   San Francisco, CA00:00:00.00 233623  118 Morgan Stanley/24 Hr Fitness/S
2503.46Steve Reaney   San Jose, CA00:00:00.00 133288  140 California Giant Cycling
3506.92Dean LaBerge   Napa, CA00:00:00.00 67041  112 Team Specialized Racing
4510.38Joel Robertson   San Leandro, CA00:00:00.00 220316  141 Sierra Pacific Racing
5513.85Jeff Poulsen   Arnold, CA00:00:00.00 28533  128 VOS Racing
6517.31Christopher Hipp (1 - Cat1)   Redwood City, CA00:00:00.00 16294  135 Labor Power
7520.77Scott Fonseca   Fair Oaks, CA00:00:00.00 204715  108 Zenn Cycling Team
8524.23Michael Charleton   Windsor, CA00:00:00.00 49344  106 Republic of Anaerobia
9527.69Steven Gile   Salinas, CA00:00:00.00 98978  130 VOS Racing
10531.15Max Mack   Sacramento, CA00:00:00.00 45629  138 
11534.62Mark Caldwell   Moraga, CA00:00:00.00 40039  134 Morgan Stanley Cycling Team
12538.08Edward Nicolson   San Francisco, CA00:00:00.00 221687  116 CRC/Poggio
13541.54Richard Juarez   Mill Valley, CA00:00:00.00 71186  110 VOS Racing
14545.00Shawn Oliver   St. Helena, CA00:00:00.00 46241  137 Morgan Stanley Cycling Team
15548.46Gregg Betonte   Truckee, CA00:00:00.00 255414  103 Specialized /Sierra Nevada
16551.92Nick Hanni   San Francisco00:00:00.00 96693  109 Adobe / HDR / P.B. Lombardi
17555.38Jason Brown   Lodi, CA00:00:00.00 53115  104 Specialized/Sierra Nevada
18558.85Oswaldo Orozco   San Francisco, CA00:00:00.00 47530  131 SJBC
19562.31Randall Smith   San Carlos, CA00:00:00.00 185237  121 Peninsula Velo/Kondra Systems
20565.77Gregory Pike   Salinas, CA00:00:00.00 158350  119 VOS Racing
21569.23Martin Wolff   Carmel, CA00:00:00.00 203646  127 VOS Racing
22572.69Mike Kelly   Rio Linda, CA00:00:00.00 138145  111 Zenn Cycling Team
23576.15Dave Kause   Sacramento, CA00:00:00.00 175157  132 Zenn Cycling Team
24579.62Michael Audley   Berkeley, CA00:00:00.00 130080  102 Team Specialized Racing
25583.08Norman Kreiss   Orinda, CA00:00:00.00 127410  133 Morgan Stanley Cycling Team
26586.54Rob Cady   Elk Grove, CA00:00:00.00 49774  139 Team Bicycles Plus/NorthRim
27MANUEL FLORES   00:00:00.00  107 NA
DNSPeter Allen   Fair Oaks, CA00:00:00.00 46996  101 Specialized/Sierra Nevada
DNSStephen Cassani   Portola Valley, CA00:00:00.00 198619  105 Team Specialized Racing
DNSBrian Laird   Menlo Park, CA00:00:00.00 20154  113 Labor Power
DNSRyan Ley   Reno, NV00:00:00.00 54565  114 nevada
DNSSteven Mielich   San Jose, CA00:00:00.00 136178  115 SJBC/SugarCRM
DNSCraig Parker   Mill Valley, CA00:00:00.00 127588  117 ZteaM
DNSPhilip Roberts   Oakland, CA00:00:00.00 30110  120 SF VELO/Cycles Gladiator
DNSMichael Tymoff   San Francisco, CA00:00:00.00 207589  122 McGuire Cycling Team
DNSWyatt Weisel   Menlo Park, CA00:00:00.00 208676  123 Team Specialized Racing
DNSChristopher Willis   Napa, CA00:00:00.00 90322  124 Clover
DNSRobert Winder   Lafayette, CA00:00:00.00 220285  125 NorCal Elite Cycling
DNSChris Wire   Saratoga, CA00:00:00.00 152176  126 SJBC/SugarCRM
DNSTony Reid   Sacramento, CA00:00:00.00 29458  129 VOS Racing
DNSDylan Casey   Menlo Park, CA00:00:00.00 41588  136 Specialized

Men - Cat 3

 Place Points NameCity, StateTime USAC #BibTeam
1540.00Greg Gomez   Mountain View, CA00:00:00.00 226091  254 Webcor/Alto Velo
2541.16Filip Vanacht   Los Altos, CA00:00:00.00 245198  240 Easton/SugarCRM/Specialized
3542.33James Hardy   Oakland, CA00:00:00.00 80116  215 Cycle Sports/Trumer Pils
4543.49Brian Percival   San Francisco, CA00:00:00.00 240097  227 Stanford University Cycling
5544.65Daniel Lam   Kalamazoo, MI00:00:00.00 239504  220 TBS Racing
6545.81Aaron Hanna   San Jose, CA00:00:00.00 204722  214 Easton/SugarCRM/Specialized
7546.98Andrew Lancashire   Elk Grove, CA00:00:00.00 218734  221 Specialized/Sierra Nevada
8548.14Hunter Ziesing   Bel Tiburon, CA00:00:00.00 39478  248 ZteaM
9549.30Reed Maxwell   Golden, CO00:00:00.00 164136  255 Contra Costa Cycling Club
10550.47Angelo DiGiovine   San Francisco, CA00:00:00.00 141326  209 Active Athlete / Squadra Ovest
11551.63Joshua Lerner   San Francisco, CA00:00:00.00 206346  222 Fusion
12552.79Josh Rennie   Reno, NV00:00:00.00 251736  229 ZteaM Cycling
13553.95Gregory White   Lafayette, CA00:00:00.00 246669  241 Kovarus / ABTA
14555.12Santiago Bolon   San Jose, CA00:00:00.00 195384  205 IC3
15556.28Scott Herring   Sausalito, CA00:00:00.00 236346  251 Touchstone Climbing
16557.44Ryan Prsha   San Jose, CA00:00:00.00 247068  228 Webcor/Alto Velo
17558.60Thomas Feix   Moss Beach, CA00:00:00.00 11403  225 Peninsula Velo Cycling Club
18559.77Marshall Roberts   Oakland, CA00:00:00.00 236807  230 eden bicycles
19560.93Joshua Kadis   Brooklyn, NY00:00:00.00 92083  253 Unattached
20562.09Cyrus Behroozi   Menlo Park, CA00:00:00.00 40408  203 Page Mill Racing
21563.26Scott Peradotto II   San Francisco00:00:00.00 190044  226 Fusion Sport
22564.42Daniel Tisdell   Phoenix, AZ00:00:00.00 188030  238 Specialized Juniors
23565.58Gregory Pike   Salinas, CA00:00:00.00 158350  244 VOS Racing
24566.74carmi Schulman   Seattle, WA00:00:00.00 200292  231 Active Athlete/Squadra Ovest
25567.91Tony Homes   Danville, CA00:00:00.00 210572  218 Wells Fargo Racing Team
26569.07Joseph Christensen   Clements, CA00:00:00.00 240832  206 Rocket Sports Racing
27570.23Robert White   Morgan Hill, CA00:00:00.00 97873  242 TBS Racing
28571.40Russell White   Lafayette, CA00:00:00.00 236024  243 Kovarus/ ABTA
29572.56Michael Holt   Morgan Hill, CA00:00:00.00 75334  217 TBS Racing
30573.72Ken Gallardo   Belmont, CA00:00:00.00 255453  213 Peninsula Velo/Kondra Systems
31574.88Randall Smith   San Carlos, CA00:00:00.00 185237  235 Peninsula Velo/Kondra Systems
32576.05Dylan McReynolds   Berkeley, CA00:00:00.00 23832  223 Berkeley Bicycle Club (BBC)
33577.21Aaron Gallardo   Woodland Hills Ca00:00:00.00 160366  245 Active Athlete/Squadra Ovest
34578.37Brandon Trafton   Sacramento, CA00:00:00.00 240033  239 Cal Giant Cycling
35579.53Peter Taylor   Walnut Creek, CA00:00:00.00 219859  237 Tieni Duro
36580.70Peter Bailey   Palo Alto, CA00:00:00.00 230238  202 Kovarus ABTA
37Hannah Banks   00:00:00.00  250 ValueAct Capital
38583.02Benjamin Cota   San Jose, CA00:00:00.00 7881  247 Los Gatos Bicycle Racing Club
39584.19James LaBerge   Napa, CA00:00:00.00 221376  219 Team Specialized Racing
40585.35Adam Hodes   San Francisco, CA00:00:00.00 219706  216 Tieni Duro
41586.51Ilan Eyman   Berkeley, CA00:00:00.00 207671  210 Berkeley Bicycle Club (BBC)
42587.67John Blasquez   Livermore, CA00:00:00.00 3914  204 Eden Bicycle Race Team
43588.84George Meilahn   Antioch, CA00:00:00.00 166581  224 International Christian Cyclin
44590.00James Ryan   San Jose, CA00:00:00.00 163902  252 Los Gatos Bicycle Racing Club
DNSDavid Acri   San Francisco00:00:00.00 233803  201 active athlete/squadra ovest
DNSMartin Wolff   Carmel, CA00:00:00.00 203646  207 VOS Racing
DNSRaymond Cogan   San Francisco, CA00:00:00.00 201255  208 Fusion Sport
DNSMichael Flynn   San Jose, CA00:00:00.00 154840  211 SJBC
DNSPatrice Gagnon   Daly City, CA00:00:00.00 205841  212 Peninsula Velo/Kondra Systems
DNSTrevor Scott   Oxford, OH00:00:00.00 232427  232 Whole Athlete
DNSNathan Shaw   Castro Valley, CA00:00:00.00 196249  233 shaw's/garden city
DNSMark Slavonia   San Francisco, CA00:00:00.00 49355  234 Peninsula Velo
DNSSean Smith   Oakland, CA00:00:00.00 204018  236 Kaiser Permanente/Team Oakland
DNSMark Altamirano   San Francisco, CA00:00:00.00 45020  246 Mako
DNSRobert Collier   Oakland, CA00:00:00.00 180155  249 Metromint Cycling on Marin Bik

Men - Cat 3/4 - Master - 45-99

 Place Points NameCity, StateTime USAC #BibTeam
1540.00Darryl Smith   Pleasanton, CA00:00:00.00 33092  543 International Christian Cyclin
2541.28Jess Raphael   Napa, CA00:00:00.00 221460  538 VOS Racing
3542.56Bernard Silveria   El Dorado Hills, CA00:00:00.00 94897  557 Alto Velo Racing Club
4543.85David Schaefer   Hayward, CA00:00:00.00 219605  541 Peninsula Velo/Kondra Systems
5545.13Dennis Pedersen   Santa Cruz, CA00:00:00.00 126404  534 Team Bicycle Trip
6546.41Hunter Ziesing   Bel Tiburon, CA00:00:00.00 39478  558 ZteaM
7547.69Jamie Willin   Redwood City, CA00:00:00.00 38466  553 the olympic club
8548.97Sean Williams   Oakland, CA00:00:00.00 205876  552 East Bay Velo Club
9550.26Doug Rappaport   San Francisco, CA00:00:00.00 198514  539 CRC Hill & Co.
10551.54Steven Mielich   San Jose, CA00:00:00.00 136178  528 SJBC/SugarCRM
11552.82Mark Lange (1 - Cat3)   Woodside, CA00:00:00.00 208336  522 Monta Vista Velo
12554.10Mark Vandenberghe   Lafayette, CA00:00:00.00 36393  551 Wells Fargo Racing Team
13555.38Andrew Posselt   Mill Valley, CA00:00:00.00 216827  536 Active Athlete/Squadra Ovest
14556.67David Leece   San Luis Obispo, CA00:00:00.00 53397  524 Rock Solid Cyclery
15557.95Thomas Carpenter   Oakland, CA00:00:00.00 169740  511 Kaiser Permanente/TeamOakland
16559.23Ross Tinline   San Carlos, CA00:00:00.00 35623  550 Peninsula Velo
17560.51Edgar Leano   St Cloud, FL00:00:00.00 224847  523 renowheelmen
18561.79Zack Beekler   Redwood City, CA00:00:00.00 249741  505 Solgar Vitamin & Herb
19563.08Alan Nielson   Dublin, CA00:00:00.00 236183  531 Wells Fargo Racing Team
20564.36Laurence Knott   Larkspur, CA00:00:00.00 19485  521 Olympic Club
21565.64Vladan Strbac   Scotts Valley, CA00:00:00.00 259261  546 Team Bicycle Trip
22566.92Tony Reid   Sacramento, CA00:00:00.00 29458  540 VOS Racing
23568.21Garry Birch   Dublin, CA00:00:00.00 136971  506 Team Fremont / Sugar CRM
24569.49Franz Broz   Pebble Beach, CA00:00:00.00 155801  508 VOS Racing
25570.77John Livinal (1 - Cat4)   Merced, CA00:00:00.00 142107  525 Merlock
26572.05Martin Wolff   Carmel, CA00:00:00.00 203646  554 VOS Racing
27573.33Paul Taylor   Brentwood, CA00:00:00.00 207281  549 Metromint on Marin Bikes
28574.62Alex Blease   San Jose, CA00:00:00.00 155963  507 TBS Racing Team
29575.90Mark Patten (2 - Cat3)   San Jose, CA00:00:00.00 92552  533 webcor/alto velo
30577.18Phillip Heiman   Penngrove, CA00:00:00.00 204100  517 Colavita/Sutterhome-Norcal
31578.46George Knott   Clovis, CA00:00:00.00 19484  520 Central Valley Cycling
32579.74James Rosberg   San Francisco, CA00:00:00.00 215977  556 Roaring Mouse Cycles
33581.03Russell McCrary   San Ramon, CA00:00:00.00 253276  527 ZteaM Cycling
34582.31Mark Altamirano   San Francisco, CA00:00:00.00 45020  501 MAKO/Mellow Motors
35583.59John Hostetler   Boulder Creek, CA00:00:00.00 243622  518 SJBC/SugarCRM
36584.87Douglas Gonda   Truckee, CA00:00:00.00 13594  515 Reno Wheelmen
37586.15Matthew Sundt   Monterey, CA00:00:00.00 184752  555 Pedali Alpini Inc.
38587.44Albert Barreto   Monterey, CA00:00:00.00 195743  504 VOS Racing
39588.72Rick Sutton   Redwood City, CA00:00:00.00 270407  547 Unattached
40590.00Lawrence Szabo   Oakland, CA00:00:00.00 145186  548 Kaiser Permanente/Team Oakland
DNSCarl Anderson   Union City, CA00:00:00.00 189618  502 Team Fremont/Sugar CRM
DNSEarle Baker   San Jose, CA00:00:00.00 204436  503 TBS Racing
DNSScott Calley   Monterey, CA00:00:00.00 195999  509 VOS Racing
DNSCarl Canaparo   San Ramon, CA00:00:00.00 212014  510 International Christian Cyclin
DNSGordon Chiang   Larkspur, CA00:00:00.00 69361  512 mako mellow motors
DNSMichael Coppolino   San Francisco, CA00:00:00.00 237772  513 Trips for Kids
DNSMichael Delange   Orinda, CA00:00:00.00 203729  514 Wells Fargo Racing Team
DNSStephen Harris   San Francisco, CA00:00:00.00 205958  516 Active Athlete/Squadra Ovest
DNSLeon Iannarelli   Vacaville, CA00:00:00.00 49838  519 team precision
DNSMark Mastoras   San Bruno, CA00:00:00.00 117797  526 Active Athlete/Squadra Ovest
DNSMark Nakamura   Pacifica, CA00:00:00.00 179927  529 Kaiser Permanente/Team Oakland
DNSAlan Nichols   Corte Madera, CA00:00:00.00 193591  530 BikeRx
DNSCraig Parker   Mill Valley, CA00:00:00.00 127588  532 ZteaM
DNSJoe Platin   Santa Cruz, CA00:00:00.00 256834  535 Team Bicycle Trip
DNSDavid Puglia   Saratoga, CA00:00:00.00 180139  537 Specialized/SugarCRM/EASTON
DNSBriant Smith   Santa Rosa, CA00:00:00.00 65697  542 Fightin' Bobas
DNSFrederick Stamm   San Mateo, CA00:00:00.00 195461  544 Peninsula Velo/Kondra Systems
DNSSteve Stewart   Los Gatos, CA00:00:00.00 34158  545 Easton/SugarCRM/Specialized

Men - Cat 4

 Place Points NameCity, StateTime USAC #BibTeam
1540.00Matthew Talbott   San Jose, CA00:00:00.00 255075  366 Clean Racer
2540.83Nathanael Christensen   Clements, CA00:00:00.00 239919  312 Rocket Sports Racing
3541.67Alejandro Quintero   Belmont, CA00:00:00.00 220245  353 Peninsula Velo/Kondra Systems
4542.50Conrad Snover   Truckee, CA00:00:00.00 196378  361 Cyclepaths/Wild Cherries Racin
5543.33Benjamin Stern   Mequon, WI00:00:00.00 238365  363 Roaring Mouse Cycles
6544.17Mitch Bramlett   Santa Cruz, CA00:00:00.00 4611  308 Third Pillar
7545.00Keith Jordon   Hayward, CA00:00:00.00 254515  333 Berkeley Bicycle Club (BBC)
8545.83Luther Kopf   Oakland, CA00:00:00.00 205705  335 Dolce Vita Cycling
9546.67Eric Gebhardt   San Mateo, CA00:00:00.00 213236  322 Third Pillar
10547.50Kea Hunt   Oakland, CA00:00:00.00 251869  330 Berkeley Bicycle Club (BBC)
11548.33Robert Luttrell   San Francisco, CA00:00:00.00 196333  339 Fusion Sport
12549.17Timothy Bisson   San Jose, CA00:00:00.00 221552  305 Fremont Freewheelers
13550.00Eric Clauss   San Francisco, CA00:00:00.00 198040  313 Active Athlete/Squadra Ovest
14550.83Greg Piini   Salinas, CA00:00:00.00 231054  352 NA
15551.67Alvaro Mosquera   Sacramento, CA00:00:00.00 236809  345 Berkeley Bicycle Club (BBC)
16552.50Matthew Triska   San Francisco, CA00:00:00.00 257229  370 Active Athlete/Squadra Ovest
17553.33Benjamin Bryant   Santa Rosa, CA00:00:00.00 247533  309 Chico Corsa
18554.17Mark Herynk   Redwood City, CA00:00:00.00 157123  327 Webcor/Alto Velo
19555.00Chai Montgomery   San Francisco, CA00:00:00.00 220242  343 godspeed
20555.83James Hayden   San Francisco, CA00:00:00.00 250790  326 Fusion Sport
21556.67Justin Dowdall   San Francisco, CA00:00:00.00 200172  317 Metromint
22557.50Colby Elliot   San Diego , CA00:00:00.00 203446  318 Chico Corsa Cycling Team
23558.33Robert Werner   San Carlos, CA00:00:00.00 236490  372 Webcor/Alto Velo
24559.17Tyron Hooper   San Francisco, CA00:00:00.00 251276  329 Fusion Sport
25560.00Willem Voorthuijsen   Morristown, NJ00:00:00.00 259694  371 Active Athlete / Squadra Ovest
26560.83Toby Long   Oakland, CA00:00:00.00 262539  342 Team Oakland Cycling
27561.67Kent Johnson   Folsom, CA00:00:00.00 259152  332 Team Ride For A Reason
28562.50Josh LaGrange   Bend, OR00:00:00.00 201330  336 Form Fitness
29563.33Kevin Threm   Aptos, CA00:00:00.00 255687  368 NA
30564.17Ryan Byars   Durham, NC00:00:00.00 266612  310 Roaring Mouse Cycles
31565.00Nole Studley   Oakland, CA00:00:00.00 251301  311 Roaring Mouse Cycles
32565.83Devin Koch   Truckee, CA00:00:00.00 260704  334 Dolce Vita
33566.67Brian Johnston   San Francisco, CA00:00:00.00 237599  362 Team Oakland Cycling
34567.50Kevin Davis   Palo Alto, CA00:00:00.00 257793  315 QuadCycles
35568.33C Jeffrey Bramlett   Palo Alto, CA00:00:00.00 202272  307 Third Pillar
36569.17Matt Abbott   Santa Rosa, CA00:00:00.00 260224  301 2 WHEEL RACING
37570.00Seth Berling   Belvedere, CA00:00:00.00 266706  304 Roaring Mouse Cycles
38570.83Neil Bartley   San Jose, CA00:00:00.00 209268  303 Berkeley Bicycle Club (BBC)
39571.67Jeff Remer   El Cerrito, CA00:00:00.00 267197  356 Roaring Mouse Cycles
40572.50James Heth   Upland, IN00:00:00.00 265351  328 Redding Velo
41573.33Kalman Zeiger   San Francisco, CA00:00:00.00 237651  375 NA
42574.17Caden Taylor   Tucson, AZ00:00:00.00 240890  367 form fitness
43575.00James Rosberg   San Francisco, CA00:00:00.00 215977  359 Roaring Mouse Cycles
44575.83Joshua Ballesteros   Brentwood, CA00:00:00.00 262160  302 Third Pillar
45576.67David Mayer   Portola Valley, CA00:00:00.00 120501  340 Third Pillar
46577.50Morgan Frank   San Francisco, CA00:00:00.00 208414  321 kovarus/squadra ovest
47578.33Lucas Leblow   Clayton, CA00:00:00.00 257205  338 Tieni Duro Junior Cycling Deve
48579.17Isaias Job   Fremont, CA00:00:00.00 207885  331 Roaring Mouse Cycles
49580.00Lei Deng   Daly City, CA00:00:00.00 239454  316 Third Pillar
50580.83Andrew Fox   Mill Valley, CA00:00:00.00 258267  320 Fusion Sport
51581.67Dustin Gibbs   Redwood City, CA00:00:00.00 244176  324 Peninsula Velo/Kondra Systems
52582.50Alexander Yermolovich   Santa Clara, CA00:00:00.00 220894  374 UCI Cycling
53583.33Alexander Gee   Danville, CA00:00:00.00 219922  323 Tieni Duro
54584.17Cullen Wojcik   Knoxville, TN00:00:00.00 205491  373 Fusion Sport
55585.00Oscar Nunez   Menlo Park, CA00:00:00.00 220085  348 Team Fremont
56585.83Matthew Sullivant   Redwood City, CA00:00:00.00 235630  365 Peninsula Velo/Kondra Systems
57586.67Samuel Parker   San Francisco, CA00:00:00.00 88610  350 Roaring Mouse Cycles
58587.50Mark Nielsen   Berkeley, CA00:00:00.00 233923  347 Touchstone Climbing
59588.33Tim Fehon   San Francisco, CA00:00:00.00 263093  319 NA
60589.17George Thoma   Oakland, CA00:00:00.00 234104  337 Team Oakland Cycling
61590.00Matt Peterson   San Francisco, CA00:00:00.00 193600  351 Roaring Mouse Cycles
DNSMichael Boehme   Windsor, CA00:00:00.00 252576  306 Colavita/Sutterhome-Norcal
DNSKieran Cox   Oakland, CA00:00:00.00 244305  314 Kaiser Permanente/ Team Oaklan
DNSDonald Harris   San Francisco, CA00:00:00.00 271814  325 dolce vita
DNSSamuel Milroy   Mountain View, CA00:00:00.00 263091  341 Webcor Alto Velo
DNSRobert Moore   Portland, OR00:00:00.00 237414  344 Active Athlete/Squadra Ovest
DNSJeff Musser   Mill Valley, CA00:00:00.00 236864  346 Active Athlete/Squadra Ovest
DNSJoakim Vinberg   Cupertino, CA00:00:00.00 226014  349 Kovarus/ABTA
DNSMark Rampton   San Francisco, CA00:00:00.00 239473  354 Third Pillar
DNSLloyd Ranola   Oakland, CA00:00:00.00 198425  355 Active Athlete/Squadra Ovest
DNSBret Roberts   San Francisco, CA00:00:00.00 271061  357 Easton/SugarCRM/Specialized
DNSRob Robinson   Castro Valley, CA00:00:00.00 271386  358 Zteam Cycling
DNSWill Skinner   Berkeley, CA00:00:00.00 256915  360 Tieni Duro
DNSTodd Stone   Carmichael, CA00:00:00.00 249318  364 NA
DNSPeter Tousignant   Belmont, CA00:00:00.00 231855  369 third pillar

Men - Cat 4 - Master - 35-99

 Place Points NameCity, StateTime USAC #BibTeam
1540.00Chris Lyman   Napa, CA00:00:00.00 267171  438 ZteaM Cycling
2541.28Matt Bokemeier   San Jose, CA00:00:00.00 254319  410 SJBC/SugarCRM
3542.56Tyron Hooper   San Francisco, CA00:00:00.00 251276  424 Fusion Sport
4543.85Morgan Fletcher   Oakland, CA00:00:00.00 205499  417 Kaiser Permanente / Team Oakla
5545.13Matthew Smith   Emeryville, CA00:00:00.00 228089  459 East Bay Velo Club
6546.41Joe Amon   San Rafael, CA00:00:00.00 71366  404 ZteaM Cycling
7547.69Robert Luttrell   San Francisco, CA00:00:00.00 196333  437 Fusion Sport
8548.97Travis Ma   Belmont, CA00:00:00.00 21959  439 Peninsula Velo/Kondra Systems
9550.26Mac Heebner   Oakland, CA00:00:00.00 252751  421 Dolce Vita Cycling
10551.54Louis Toba   Palo Alto, CA00:00:00.00 56384  463 Webcor Alto Velo
11552.82Raymond Gildea   Emerald Hills, CA00:00:00.00 133970  419 Peninsula Velo/Kondra Systems
12554.10Paul Sechrist   San Jose, CA00:00:00.00 212035  458 Webcor/Alto Velo
13555.38Dennis Baker   Sacramento, CA00:00:00.00 255279  405 Sacramento Golden Wheelmen
14556.67Steve Ball   Napa, CA00:00:00.00 59338  407 Eagle Racing Team
15557.95Lloyd Ranola   Oakland, CA00:00:00.00 198425  450 Active Athlete/Squadra Ovest
16559.23John Ormsby   Berkeley, CA00:00:00.00 219328  448 Touchstone Climbing
17560.51Michael Boehme   Windsor, CA00:00:00.00 252576  409 Colavita/Sutterhome-Norcal
18561.79Devin Koch   Truckee, CA00:00:00.00 260704  433 Dolce Vita
19563.08Steven Riojas   Walnut Creek, CA00:00:00.00 222820  453 NorCal Elite Cycling
20564.36Greg Elliott   Fremont, CA00:00:00.00 271538  415 Now Direct
21565.64Peter Tousignant   Belmont, CA00:00:00.00 231855  464 third pillar
22566.92Paul Taylor   Brentwood, CA00:00:00.00 207281  461 Metromint on Marin Bikes
23568.21Scott Calley   Monterey, CA00:00:00.00 195999  412 VOS Racing
24569.49Victor Furr   Pleasanton, CA00:00:00.00 96225  418 Now Direct
25570.77Michael Delange   Orinda, CA00:00:00.00 203729  414 Wells Fargo Racing Team
26572.05Kevin Threm   Aptos, CA00:00:00.00 255687  462 NA
27573.33Douglas Aldrich   San Jose, CA00:00:00.00 245255  402 SJBC/SugarCRM
28574.62Stephen Ransom   San Francisco, CA00:00:00.00 59104  451 Dolce Vita
29575.90Jesse Baliscao   Aptos, CA00:00:00.00 271991  406 SJBC/SugarCRM
30577.18Richard Jones   Oakland, CA00:00:00.00 122040  431 Kaiser Permanente / Team Oakla
31578.46Erik Salander   Belmont, CA00:00:00.00 195443  457 Peninsula Velo/Kondra Systems
32579.74Rob Robinson   Castro Valley, CA00:00:00.00 271386  455 Zteam Cycling
33581.03Robbie Abundis   Aptos, CA00:00:00.00 89807  401 THE BICYCLE TRIP
34582.31Jeff Musser   Mill Valley, CA00:00:00.00 236864  444 Active Athlete/Squadra Ovest
35583.59Matthew Sundt   Monterey, CA00:00:00.00 184752  469 Pedali Alpini
36584.87Juan Ortiz   Castro Valley, CA00:00:00.00 26838  449 Fusion Sport
37586.15Anthony Eng   El Cerrito, CA00:00:00.00 245065  416 Oakland Yellow Jackets
38587.44Derrick Hemingway   San Jose, CA00:00:00.00 259077  422 SJBC/SugarCRM
39588.72Robert Lo   Suisun City, CA00:00:00.00 90804  436 Eagle Race Team
40590.00Sean Odom   Carmichael, CA00:00:00.00 223061  447 Touchstone
DNSRay Alvarez   Belmont, CA00:00:00.00 158228  403 Pen Velo/Kondra Systems
DNSJoshua Ballesteros   Brentwood, CA00:00:00.00 262160  408 Third Pillar
DNSChris Burgeson   Napa, CA00:00:00.00 5490  411 Eagles
DNSLeon D'Aquino   Foster City, CA00:00:00.00 231422  413 Pen Velo
DNSRussell Hands   Benicia, CA00:00:00.00 136432  420 Eagle Racing Team
DNSPaul Henderson   Livermore, CA00:00:00.00 254491  423 Now Direct
DNSAndrew Hsu   San Carlos, CA00:00:00.00 107681  425 Peninsula Velo / Kondra System
DNSJonathan Hunt   San Francisco, CA00:00:00.00 260123  426 Freewheel Bike Shop
DNSJim Hunton   San Jose, CA00:00:00.00 204853  427 SJBC/SugarCRM
DNSJagjit Johal   San Mateo, CA00:00:00.00 259595  428 Peninsula Velo/Kondra Systems
DNSBrian Johnston   San Francisco, CA00:00:00.00 237599  429 Kaiser Permanente/Team Oakland
DNSAllen Jones   Dublin, CA00:00:00.00 255750  430 InfoVista Cycling Team
DNSRaleigh Kay   Tracy, CA00:00:00.00 209395  432 Now Direct
DNSWarren Lane   Lafayette, CA00:00:00.00 227316  434 Synergy-Taleo Racing
DNSJohn Livinal   Merced, CA00:00:00.00 142107  435 Merlock
DNSTodd Manley   San Jose, CA00:00:00.00 253905  440 SJBC/SugarCRM
DNSKiernan McGuire   Mill Valley, CA00:00:00.00 211423  441 Dolce Vita Cycling
DNSDavid Metzinger   Livermore, CA00:00:00.00 230083  442 Now Direct
DNSRobert Moore   Portland, OR00:00:00.00 237414  443 Active Athlete/Squadra Ovest
DNSRobert Nerrie   Redwood City, CA00:00:00.00 221742  445 
DNSStephen Nowicki   Davis, CA00:00:00.00 219022  446 Davis Bike Club
DNSGordon Richardson   Sacramento, CA00:00:00.00 198509  452 
DNSMark Robertson   Oakland, CA00:00:00.00 237380  454 Synergy-Taleo Racing
DNSRobin Rolles   Sacramento , CA00:00:00.00 219331  456 Davis Bike Club
DNSKristopher Spyrka   Alamo, CA00:00:00.00 207144  460 Synergy-Taleo
DNSAndreas Vogel   San Francisco, CA00:00:00.00 237199  465 CyclingCalifornia.Com
DNSAdam Waskow   Fairfax, CA00:00:00.00 219104  466 Whole Athlete
DNSGeoff Wilcox   Richmond , CA00:00:00.00 253588  467 Altezza 40
DNSBrian Yumae   Berkeley, CA00:00:00.00 254838  468 SF Sport & Spine Pt Racing

Men - Cat 5

 Place Points NameCity, StateTime USAC #BibTeam
1540.00Anthony Coando   San Francisco, CA00:00:00.00 170101  705 Active Athlete/Squadra Ovest
2541.35Scott Penzarella   Mill Valley, CA00:00:00.00 268482  728 Bike-Rx
3542.70David Hopkins   Santa Cruz, CA00:00:00.00 169930  716 Spokesman Bikes/SCCCC
4544.05Russell Voss   Tracy, CA00:00:00.00 258026  740 Now Direct
5545.41Jon Jordan   Santa Rosa, CA00:00:00.00 246723  718 Fightin' Bobas
6546.76Jason Snovel   Sacramento, CA00:00:00.00 268577  732 Davis Bike Club
7548.11David Mesa   Crockett, CA00:00:00.00 243257  721 NA
8549.46 CAMERON WALKER   Sacramento, CA00:00:00.00 275120  745 CMT
9550.81Tryon Woods   Providence, RI00:00:00.00 42850  741 Team CS
10552.16Nicholas Tudoni   Burlingame, CA00:00:00.00 244476  736 Peninsula Velo/ Kondra Systems
11553.51Paul Ngo   San Jose, CA00:00:00.00 275571  725 NA
12554.86Matthew Lucero   San Francisco, CA00:00:00.00 267000  720 NA
13556.22Steven Ohlhaber   Chicago00:00:00.00 223376  727 Dolce Vita Racing
14557.57Julio Cesar Esqueda   Oakland, CA00:00:00.00 272384  709 Berkeley Bicycle Club
15558.92Chad Thomas   San Mateo, CA00:00:00.00 272148  734 Peninsula Velo/Kondra
16560.27Peter Newell   Alamo, CA00:00:00.00 268555  724 Third Pillar
17561.62john mills   Los Angeles, CA00:00:00.00 271452  723 Kaiser Permanente Team Oakland
18562.97David Villalpando   Sunnyvale, CA00:00:00.00 237542  737 Eden Bicycle Racing Team
19Michael HIRONIMUS   00:00:00.00  715 NA
20565.68Lucas Fernandez   Sunnyvale, CA00:00:00.00 271313  710 Webcor/Alto Velo
21567.03Matt Abdalah   Los Altos, CA00:00:00.00 224627  701 NA
22568.38Don Daniel   San Francisco, CA00:00:00.00 235169  706 NA
23569.73Christopher Kolm   Moraga, CA00:00:00.00 254578  719 Synergy-Taleo Racing
24Bob Harris   00:00:00.00  746 
25572.43matthew chen   San Francisco, CA00:00:00.00 261716  704 NA
26573.78Ray Tofolo   San Francisco, CA00:00:00.00 272998  735 Dolce Vita
27575.14Thomas DeGabriele   Oakland, CA00:00:00.00 277688  744 
28576.49Douglas Miller   San Jose, CA00:00:00.00 273511  722 TBS Racing
29577.84Rene Villalpando   Oakland, CA00:00:00.00 242554  738 Eden Bicycle Club
30579.19AJ Snovel   Sacramento, CA00:00:00.00 272559  731 Davis Bike Club
31580.54Ivan Poddubnyy   San Jose, CA00:00:00.00 266310  729 Webcor/AltoVelo
32581.89Russell Fong   San Francisco, CA00:00:00.00 268538  711 East Bay Velo Club
33583.24Mike Gregoire   Alamo, CA00:00:00.00 264782  713 Synergy/Taleo
34584.59Ross Drummond   Sacramento, CA00:00:00.00 270934  708 NA
35585.95AMIN TAMARIZ   Belmont, CA00:00:00.00 277016  733 NA
36587.30Tom Work   Fairfield, CA00:00:00.00 257220  742 Eagles Racing Team
37588.65Donald Sirbuly   Mountain House, CA00:00:00.00 268695  730 NA
38590.00Christian Villasana   San Francisco, CA00:00:00.00 229257  739 Teamswift
DNSChristopher Bosch   San Francisco, CA00:00:00.00 261766  702 team burley
DNSChristopher Brown   Monterey, CA00:00:00.00 254961  703 Don Chapin Montereay Bay Racin
DNSJason de Bretteville   Los Altos, CA00:00:00.00 272906  707 Webcor/Alto Velo
DNSEric Gneckow   Gilroy, CA00:00:00.00 275884  712 NA
DNSEspen Helskog   San Francisco, CA00:00:00.00 272284  714 Team Oakland
DNSstephen Hughes   Santa Rosa, CA00:00:00.00 265627  717 Stephen Hughes
DNSMark Nichols   Alamo, CA00:00:00.00 83106  726 Wells Fargo
DNSHenry Wu   San Francisco, CA00:00:00.00 270193  743 Velvet

Women - Cat 3

 Place Points NameCity, StateTime USAC #BibTeam
1540.00Andrea Monroe   Oakland, CA00:00:00.00 195672  610 Velo Bella-Kona
2544.17Starla Teddergreen   Portland, OR00:00:00.00 202033  613 Dolce Vita Cycling
3548.33Anna Woldring   Mill Valley, CA00:00:00.00 255055  607 Code 3 Racing
4552.50Brooke Henderson   Colorado Springs, CO00:00:00.00 166286  609 Unattached
5556.67Jessica Layman   San Francisco, CA00:00:00.00 242581  608 Metromint Cycling on Marin Bik
6560.83Samantha Taylor   San Francisco, CA00:00:00.00 235763  605 CRC/Poggio
7565.00Kim Wik   Fremont, CA00:00:00.00 254251  606 Code3Racing
8569.17Andrea Laue   Berkeley, CA00:00:00.00 235762  603 Metromint Cycling on Marin Bik
9573.33Sarah Kayfetz   San Francisco, CA00:00:00.00 104310  612 Dolce Vita Cycling
10577.50Soni Andreini Poulsen   Arnold, CA00:00:00.00 235758  611 Velo Bella-Kona
11581.67Monique Quandt   Oakland, CA00:00:00.00 196320  604 Metromint Cycling on Marin Bik
12585.83Chris Hilburn   Carmel, CA00:00:00.00 145952  602 Left Coast Racing
13590.00Angela Aldrich   San Jose, CA00:00:00.00 222858  601 Easton/SugarCRM/Specialized

Report missing or incorrect license numbers

Volkswagen
Sierra NevadaBonk BreakerShimanoUSACDFSpy
UCI USA Cycling is the official governing body for all disciplines of competitive cycling in the United States. The 501c3, membership-based organization aims both to achieve sustained success in international cycling competition and to grow competitive cycling in America while delivering an exceptional customer experience.
View Children's Online Privacy Protection Policy
US Olympic Committee